createdAt,value
2022-10-13T00:01:30.629Z,15.38
2022-10-13T00:03:58.096Z,15.48
2022-10-13T00:06:26.420Z,15.53
2022-10-13T00:08:54.038Z,15.58
2022-10-13T00:11:23.108Z,15.60
2022-10-13T00:13:52.555Z,15.62
2022-10-13T00:16:20.787Z,15.58
2022-10-13T00:18:48.401Z,15.61
2022-10-13T00:21:17.226Z,15.59
2022-10-13T00:23:45.858Z,15.53
2022-10-13T00:26:20.097Z,15.57
2022-10-13T00:28:52.243Z,15.56
2022-10-13T00:31:24.122Z,15.47
2022-10-13T00:33:52.819Z,15.44
2022-10-13T00:36:21.987Z,15.34
2022-10-13T00:38:49.593Z,15.35
2022-10-13T00:41:16.860Z,15.44
2022-10-13T00:43:48.620Z,15.40
2022-10-13T00:46:16.051Z,15.45
2022-10-13T00:48:45.076Z,15.50
2022-10-13T00:51:14.874Z,15.52
2022-10-13T00:53:42.222Z,15.56
2022-10-13T00:56:11.539Z,15.55
2022-10-13T00:58:40.909Z,15.54
2022-10-13T01:01:08.320Z,15.59
2022-10-13T01:03:36.225Z,15.57
2022-10-13T01:06:05.671Z,15.57
2022-10-13T01:08:33.397Z,15.55
2022-10-13T01:11:24.252Z,15.53
2022-10-13T01:14:00.276Z,15.45
2022-10-13T01:16:42.649Z,15.49
2022-10-13T01:19:15.882Z,15.49
2022-10-13T01:21:55.108Z,15.53
2022-10-13T01:24:48.955Z,15.52
2022-10-13T01:27:16.096Z,15.49
2022-10-13T01:30:01.672Z,15.43
2022-10-13T01:32:41.170Z,15.36
2022-10-13T01:35:10.660Z,15.25
2022-10-13T01:37:44.076Z,15.29
2022-10-13T01:40:17.165Z,15.34
2022-10-13T01:42:56.798Z,15.38
2022-10-13T01:45:26.684Z,15.41
2022-10-13T01:47:54.104Z,15.44
2022-10-13T01:50:22.005Z,15.45
2022-10-13T01:52:50.260Z,15.48
2022-10-13T01:55:17.620Z,15.45
2022-10-13T01:57:45.203Z,15.37
2022-10-13T02:00:13.911Z,15.34
2022-10-13T02:02:51.982Z,15.32
2022-10-13T02:05:49.026Z,15.33
2022-10-13T02:08:25.083Z,15.31
2022-10-13T02:11:12.655Z,15.22
2022-10-13T02:13:42.643Z,15.13
2022-10-13T02:16:10.850Z,15.16
2022-10-13T02:18:38.362Z,15.18
2022-10-13T02:21:06.364Z,15.20
2022-10-13T02:23:33.673Z,15.17
2022-10-13T02:26:01.132Z,15.17
2022-10-13T02:28:29.306Z,15.10
2022-10-13T02:30:56.513Z,15.03
2022-10-13T02:33:24.276Z,14.88
2022-10-13T02:35:51.800Z,14.78
2022-10-13T02:38:19.192Z,14.99
2022-10-13T02:40:46.397Z,14.93
2022-10-13T02:43:13.584Z,14.98
2022-10-13T02:45:43.581Z,14.98
2022-10-13T02:48:10.780Z,15.00
2022-10-13T02:50:38.132Z,15.04
2022-10-13T02:53:05.352Z,15.03
2022-10-13T02:55:32.923Z,15.04
2022-10-13T02:58:00.165Z,15.01
2022-10-13T03:00:27.424Z,14.96
2022-10-13T03:02:54.604Z,14.96
2022-10-13T03:05:21.997Z,14.93
2022-10-13T03:07:49.895Z,14.87
2022-10-13T03:10:17.478Z,14.82
2022-10-13T03:12:44.736Z,14.77
2022-10-13T03:15:12.068Z,14.71
2022-10-13T03:17:39.282Z,14.72
2022-10-13T03:20:08.057Z,14.68
2022-10-13T03:22:35.201Z,14.64
2022-10-13T03:25:02.391Z,14.49
2022-10-13T03:27:31.595Z,14.51
2022-10-13T03:29:58.862Z,14.47
2022-10-13T03:32:26.210Z,14.43
2022-10-13T03:34:55.097Z,14.48
2022-10-13T03:37:22.290Z,14.52
2022-10-13T03:39:49.503Z,14.58
2022-10-13T03:42:18.258Z,14.52
2022-10-13T03:44:51.321Z,14.52
2022-10-13T03:47:20.992Z,14.55
2022-10-13T03:49:48.317Z,14.56
2022-10-13T03:52:15.532Z,14.53
2022-10-13T03:54:42.803Z,14.46
2022-10-13T03:57:10.118Z,14.43
2022-10-13T03:59:39.170Z,14.45
2022-10-13T04:02:06.428Z,14.47
2022-10-13T04:04:33.932Z,14.45
2022-10-13T04:07:38.902Z,14.37
2022-10-13T04:10:18.804Z,14.44
2022-10-13T04:12:48.466Z,14.48
2022-10-13T04:15:15.741Z,14.59
2022-10-13T04:17:43.045Z,14.59
2022-10-13T04:20:10.506Z,14.53
2022-10-13T04:22:37.738Z,14.48
2022-10-13T04:25:05.435Z,14.47
2022-10-13T04:27:32.631Z,14.46
2022-10-13T04:29:59.865Z,14.47
2022-10-13T04:32:28.127Z,14.44
2022-10-13T04:34:55.192Z,14.42
2022-10-13T04:37:22.396Z,14.33
2022-10-13T04:39:49.549Z,14.29
2022-10-13T04:42:16.916Z,14.30
2022-10-13T04:44:44.251Z,14.36
2022-10-13T04:47:12.004Z,14.34
2022-10-13T04:49:39.248Z,14.31
2022-10-13T04:52:06.408Z,14.31
2022-10-13T04:54:33.584Z,14.35
2022-10-13T04:57:00.727Z,14.45
2022-10-13T04:59:27.981Z,14.44
2022-10-13T05:01:55.304Z,14.44
2022-10-13T05:04:22.395Z,14.35
2022-10-13T05:07:15.849Z,14.28
2022-10-13T05:10:08.978Z,14.29
2022-10-13T05:12:36.473Z,14.30
2022-10-13T05:15:03.853Z,14.30
2022-10-13T05:17:35.448Z,14.37
2022-10-13T05:20:08.661Z,14.52
2022-10-13T05:22:35.857Z,14.52
2022-10-13T05:25:03.934Z,14.47
2022-10-13T05:27:31.195Z,14.45
2022-10-13T05:30:01.690Z,14.35
2022-10-13T05:32:28.822Z,14.39
2022-10-13T05:34:57.787Z,14.42
2022-10-13T05:37:24.942Z,14.38
2022-10-13T05:39:52.135Z,14.30
2022-10-13T05:42:19.515Z,14.25
2022-10-13T05:44:46.875Z,14.27
2022-10-13T05:47:14.096Z,14.25
2022-10-13T05:49:41.303Z,14.21
2022-10-13T05:52:10.527Z,14.14
2022-10-13T05:54:43.624Z,14.13
2022-10-13T05:57:17.454Z,14.10
2022-10-13T05:59:48.900Z,13.91
2022-10-13T06:02:16.816Z,14.00
2022-10-13T06:04:46.564Z,13.96
2022-10-13T06:10:16.742Z,14.17
2022-10-13T06:12:43.799Z,14.19
2022-10-13T06:15:12.845Z,14.19
2022-10-13T06:17:40.086Z,14.19
2022-10-13T06:20:07.901Z,14.25
2022-10-13T06:22:35.619Z,14.35
2022-10-13T06:25:03.409Z,14.41
2022-10-13T06:27:30.858Z,14.46
2022-10-13T06:29:59.575Z,14.55
2022-10-13T06:32:26.721Z,14.62
2022-10-13T06:34:53.935Z,14.66
2022-10-13T06:37:26.323Z,14.68
2022-10-13T06:39:54.535Z,14.70
2022-10-13T06:42:22.119Z,14.76
2022-10-13T06:45:07.484Z,14.81
2022-10-13T06:47:34.714Z,14.86
2022-10-13T06:50:02.098Z,14.96
2022-10-13T06:52:29.212Z,15.07
2022-10-13T06:54:56.412Z,15.20
2022-10-13T06:57:23.601Z,15.24
2022-10-13T06:59:52.879Z,15.27
2022-10-13T07:02:20.298Z,15.32
2022-10-13T07:04:47.937Z,15.35
2022-10-13T07:07:16.140Z,15.43
2022-10-13T07:09:43.976Z,15.51
2022-10-13T07:12:12.792Z,15.62
2022-10-13T07:14:43.024Z,15.68
2022-10-13T07:17:11.021Z,15.70
2022-10-13T07:19:38.315Z,15.80
2022-10-13T07:22:05.513Z,15.86
2022-10-13T07:24:34.435Z,15.90
2022-10-13T07:27:06.746Z,15.99
2022-10-13T07:29:34.959Z,16.14
2022-10-13T07:32:02.140Z,16.23
2022-10-13T07:34:29.317Z,16.27
2022-10-13T07:36:56.853Z,16.40
2022-10-13T07:39:23.946Z,16.68
2022-10-13T07:41:51.485Z,16.77
2022-10-13T07:44:18.825Z,16.91
2022-10-13T07:46:46.139Z,16.92
2022-10-13T07:49:16.174Z,16.98
2022-10-13T07:51:44.476Z,17.02
2022-10-13T07:54:11.727Z,17.29
2022-10-13T07:56:39.805Z,17.96
2022-10-13T07:59:07.610Z,18.93
2022-10-13T08:01:34.822Z,18.86
2022-10-13T08:04:02.099Z,18.46
2022-10-13T08:06:29.346Z,18.26
2022-10-13T08:09:00.560Z,18.00
2022-10-13T08:11:27.764Z,18.32
2022-10-13T08:13:55.987Z,18.67
2022-10-13T08:16:23.200Z,18.73
2022-10-13T08:18:50.490Z,18.79
2022-10-13T08:24:06.942Z,19.38
2022-10-13T08:26:34.168Z,19.51
2022-10-13T08:34:16.701Z,20.21
2022-10-13T08:36:43.928Z,20.55
2022-10-13T08:39:11.545Z,20.55
2022-10-13T08:41:40.396Z,20.90
2022-10-13T08:47:10.546Z,22.10
2022-10-13T08:49:40.334Z,21.89
2022-10-13T08:52:16.702Z,21.57
2022-10-13T08:54:44.108Z,21.65
2022-10-13T08:57:11.337Z,21.57
2022-10-13T08:59:38.585Z,21.37
2022-10-13T09:02:14.739Z,21.06
2022-10-13T09:04:44.034Z,20.75
2022-10-13T09:07:26.299Z,20.83
2022-10-13T09:09:54.259Z,20.58
2022-10-13T09:12:25.105Z,20.51
2022-10-13T09:14:59.284Z,20.50
2022-10-13T09:17:27.031Z,20.28
2022-10-13T09:20:12.778Z,19.92
2022-10-13T09:22:40.164Z,20.17
2022-10-13T09:25:07.633Z,20.24
2022-10-13T09:27:44.470Z,19.96
2022-10-13T09:30:26.314Z,20.02
2022-10-13T09:33:13.425Z,20.01
2022-10-13T09:35:42.558Z,20.03
2022-10-13T09:38:19.925Z,20.05
2022-10-13T09:41:06.095Z,20.11
2022-10-13T09:43:53.538Z,20.17
2022-10-13T09:46:35.502Z,20.12
2022-10-13T09:49:25.289Z,20.09
2022-10-13T09:51:52.580Z,20.10
2022-10-13T09:54:40.736Z,20.09
2022-10-13T09:57:15.349Z,20.14
2022-10-13T09:59:49.236Z,20.18
2022-10-13T10:02:35.513Z,20.24
2022-10-13T10:05:07.740Z,20.26
2022-10-13T10:07:34.891Z,20.11
2022-10-13T10:10:09.928Z,20.09
2022-10-13T10:12:41.979Z,20.13
2022-10-13T10:15:23.774Z,20.17
2022-10-13T10:17:54.320Z,20.25
2022-10-13T10:20:31.494Z,20.23
2022-10-13T10:23:06.239Z,20.25
2022-10-13T10:25:52.481Z,20.13
2022-10-13T10:28:19.775Z,20.24
2022-10-13T10:30:51.462Z,20.23
2022-10-13T10:33:27.490Z,20.27
2022-10-13T10:35:59.144Z,20.41
2022-10-13T10:38:26.338Z,20.36
2022-10-13T10:41:03.668Z,20.39
2022-10-13T10:43:30.802Z,20.38
2022-10-13T10:45:59.207Z,20.42
2022-10-13T10:48:37.964Z,20.48
2022-10-13T10:51:08.947Z,20.49
2022-10-13T10:53:42.073Z,20.53
2022-10-13T10:56:31.515Z,20.55
2022-10-13T10:59:14.207Z,20.46
2022-10-13T11:01:59.838Z,20.43
2022-10-13T11:04:41.570Z,20.38
2022-10-13T11:07:13.473Z,20.43
2022-10-13T11:09:43.866Z,20.47
2022-10-13T11:12:21.192Z,20.51
2022-10-13T11:14:48.763Z,20.57
2022-10-13T11:17:37.909Z,20.70
2022-10-13T11:20:17.212Z,20.70
2022-10-13T11:23:04.376Z,20.71
2022-10-13T11:25:36.286Z,20.74
2022-10-13T11:28:22.849Z,20.80
2022-10-13T11:31:16.739Z,20.69
2022-10-13T11:33:52.337Z,20.73
2022-10-13T11:36:34.966Z,20.87
2022-10-13T11:39:20.703Z,20.96
2022-10-13T11:41:57.222Z,20.96
2022-10-13T11:44:34.819Z,20.96
2022-10-13T11:47:02.780Z,20.97
2022-10-13T11:49:36.097Z,20.96
2022-10-13T11:52:12.276Z,20.90
2022-10-13T11:54:41.673Z,20.86
2022-10-13T11:57:31.383Z,20.91
2022-10-13T11:59:58.983Z,20.96
2022-10-13T12:02:50.436Z,20.97
2022-10-13T12:05:22.608Z,21.02
2022-10-13T12:07:51.378Z,21.03
2022-10-13T12:10:20.875Z,20.96
2022-10-13T12:12:49.396Z,20.88
2022-10-13T12:15:36.784Z,20.84
2022-10-13T12:18:19.558Z,20.88
2022-10-13T12:20:52.714Z,20.90
2022-10-13T12:23:20.111Z,20.97
2022-10-13T12:25:48.882Z,20.99
2022-10-13T12:28:19.271Z,21.09
2022-10-13T12:30:56.749Z,21.20
2022-10-13T12:33:31.101Z,21.21
2022-10-13T12:36:18.763Z,21.25
2022-10-13T12:38:48.772Z,21.26
2022-10-13T12:41:20.704Z,21.23
2022-10-13T12:43:48.480Z,21.14
2022-10-13T12:46:35.343Z,21.14
2022-10-13T12:49:05.379Z,21.03
2022-10-13T12:51:34.883Z,21.04
2022-10-13T12:54:06.610Z,21.05
2022-10-13T12:56:34.018Z,21.01
2022-10-13T12:59:01.326Z,21.00
2022-10-13T13:01:35.231Z,21.01
2022-10-13T13:04:17.701Z,21.00
2022-10-13T13:06:55.534Z,21.01
2022-10-13T13:09:30.096Z,21.04
2022-10-13T13:12:12.293Z,20.98
2022-10-13T13:14:44.000Z,21.00
2022-10-13T13:17:12.793Z,20.95
2022-10-13T13:19:41.160Z,20.99
2022-10-13T13:22:10.750Z,21.00
2022-10-13T13:24:41.027Z,21.02
2022-10-13T13:27:18.665Z,21.04
2022-10-13T13:29:45.971Z,21.05
2022-10-13T13:32:14.926Z,21.10
2022-10-13T13:34:42.683Z,21.10
2022-10-13T13:37:13.084Z,21.06
2022-10-13T13:39:40.394Z,21.01
2022-10-13T13:42:11.810Z,20.96
2022-10-13T13:44:40.617Z,20.92
2022-10-13T13:47:14.777Z,20.89
2022-10-13T13:49:42.345Z,20.84
2022-10-13T13:52:09.525Z,20.84
2022-10-13T13:54:37.400Z,20.83
2022-10-13T13:57:05.017Z,20.82
2022-10-13T13:59:33.007Z,20.80
2022-10-13T14:02:00.360Z,20.81
2022-10-13T14:04:30.734Z,20.81
2022-10-13T14:07:00.730Z,20.81
2022-10-13T14:09:31.616Z,20.81
2022-10-13T14:11:59.296Z,20.81
2022-10-13T14:14:26.689Z,20.80
2022-10-13T14:16:53.997Z,20.80
2022-10-13T14:19:21.173Z,20.82
2022-10-13T14:21:48.638Z,20.84
2022-10-13T14:24:18.732Z,20.82
2022-10-13T14:26:46.045Z,20.80
2022-10-13T14:29:13.680Z,20.81
2022-10-13T14:31:40.898Z,20.79
2022-10-13T14:34:08.266Z,20.80
2022-10-13T14:36:35.935Z,20.78
2022-10-13T14:39:03.413Z,20.74
2022-10-13T14:41:30.817Z,20.74
2022-10-13T14:43:58.090Z,20.74
2022-10-13T14:46:25.471Z,20.73
2022-10-13T14:48:52.912Z,20.71
2022-10-13T14:51:20.622Z,20.66
2022-10-13T14:53:47.994Z,20.63
2022-10-13T14:56:18.557Z,20.61
2022-10-13T14:58:50.649Z,20.58
2022-10-13T15:01:18.597Z,20.56
2022-10-13T15:03:46.391Z,20.53
2022-10-13T15:06:15.247Z,20.52
2022-10-13T15:08:43.052Z,20.51
2022-10-13T15:11:10.751Z,20.47
2022-10-13T15:13:38.004Z,20.45
2022-10-13T15:16:06.228Z,20.41
2022-10-13T15:18:35.121Z,20.37
2022-10-13T15:21:02.610Z,20.36
2022-10-13T15:23:29.793Z,20.34
2022-10-13T15:25:58.656Z,20.30
2022-10-13T15:28:28.024Z,20.26
2022-10-13T15:30:55.592Z,20.27
2022-10-13T15:33:24.170Z,20.24
2022-10-13T15:35:51.962Z,20.20
2022-10-13T15:38:20.278Z,20.21
2022-10-13T15:40:47.956Z,20.18
2022-10-13T15:43:16.780Z,20.17
2022-10-13T15:45:53.084Z,20.17
2022-10-13T15:48:20.587Z,20.13
2022-10-13T15:50:47.980Z,20.11
2022-10-13T15:53:15.150Z,20.09
2022-10-13T15:55:42.433Z,20.06
2022-10-13T15:58:13.536Z,20.05
2022-10-13T16:00:41.661Z,20.01
2022-10-13T16:03:13.245Z,19.99
2022-10-13T16:05:41.905Z,19.96
2022-10-13T16:08:13.100Z,19.94
2022-10-13T16:10:42.508Z,19.89
2022-10-13T16:13:12.523Z,19.92
2022-10-13T16:15:42.122Z,19.86
2022-10-13T16:18:09.406Z,19.82
2022-10-13T16:20:39.383Z,19.87
2022-10-13T16:23:06.603Z,19.84
2022-10-13T16:25:33.817Z,19.74
2022-10-13T16:28:05.519Z,19.71
2022-10-13T16:30:35.665Z,19.66
2022-10-13T16:33:02.811Z,19.63
2022-10-13T16:35:34.177Z,19.61
2022-10-13T16:38:01.824Z,19.55
2022-10-13T16:40:29.238Z,19.55
2022-10-13T16:42:56.464Z,19.54
2022-10-13T16:45:41.120Z,19.52
2022-10-13T16:48:13.617Z,19.53
2022-10-13T16:50:40.978Z,19.50
2022-10-13T16:53:08.361Z,19.50
2022-10-13T16:55:38.916Z,19.48
2022-10-13T16:58:06.226Z,19.43
2022-10-13T17:00:34.918Z,19.42
2022-10-13T17:03:02.173Z,19.47
2022-10-13T17:05:29.476Z,19.43
2022-10-13T17:07:57.415Z,19.41
2022-10-13T17:10:24.623Z,19.38
2022-10-13T17:12:52.755Z,19.35
2022-10-13T17:15:20.026Z,19.40
2022-10-13T17:17:47.434Z,19.40
2022-10-13T17:20:14.585Z,19.37
2022-10-13T17:22:44.421Z,19.34
2022-10-13T17:25:13.444Z,19.30
2022-10-13T17:27:40.581Z,19.27
2022-10-13T17:30:10.309Z,19.22
2022-10-13T17:32:38.348Z,19.22
2022-10-13T17:35:05.967Z,19.17
2022-10-13T17:37:33.084Z,19.09
2022-10-13T17:40:00.284Z,19.05
2022-10-13T17:42:28.764Z,19.05
2022-10-13T17:44:55.840Z,19.04
2022-10-13T17:47:23.283Z,18.95
2022-10-13T17:49:50.647Z,18.85
2022-10-13T17:52:18.645Z,18.79
2022-10-13T17:54:47.841Z,18.75
2022-10-13T17:57:14.910Z,18.68
2022-10-13T17:59:41.975Z,18.63
2022-10-13T18:02:09.780Z,18.63
2022-10-13T18:04:36.964Z,18.61
2022-10-13T18:07:04.031Z,18.46
2022-10-13T18:09:31.430Z,18.38
2022-10-13T18:11:58.808Z,18.33
2022-10-13T18:14:26.156Z,18.26
2022-10-13T18:16:53.776Z,18.28
2022-10-13T18:19:21.533Z,18.27
2022-10-13T18:21:49.148Z,18.19
2022-10-13T18:24:16.418Z,18.13
2022-10-13T18:26:43.669Z,18.07
2022-10-13T18:29:11.574Z,18.06
2022-10-13T18:31:39.851Z,17.98
2022-10-13T18:34:08.334Z,17.92
2022-10-13T18:36:36.649Z,17.88
2022-10-13T18:39:08.599Z,17.83
2022-10-13T18:41:36.756Z,17.73
2022-10-13T18:44:04.319Z,17.70
2022-10-13T18:46:32.097Z,17.69
2022-10-13T18:48:59.284Z,17.66
2022-10-13T18:51:26.580Z,17.66
2022-10-13T18:53:53.752Z,17.64
2022-10-13T18:56:23.553Z,17.57
2022-10-13T18:58:54.530Z,17.55
2022-10-13T19:01:26.639Z,17.56
2022-10-13T19:03:54.364Z,17.54
2022-10-13T19:06:41.721Z,17.49
2022-10-13T19:09:10.912Z,17.45
2022-10-13T19:11:40.021Z,17.38
2022-10-13T19:14:10.914Z,17.36
2022-10-13T19:16:38.975Z,17.35
2022-10-13T19:19:09.197Z,17.23
2022-10-13T19:21:37.116Z,17.24
2022-10-13T19:24:06.662Z,17.29
2022-10-13T19:26:34.570Z,17.31
2022-10-13T19:29:03.657Z,17.32
2022-10-13T19:31:31.817Z,17.28
2022-10-13T19:33:59.450Z,17.19
2022-10-13T19:36:38.195Z,17.23
2022-10-13T19:39:09.248Z,17.22
2022-10-13T19:41:38.128Z,17.10
2022-10-13T19:44:05.671Z,16.86
2022-10-13T19:46:39.993Z,16.78
2022-10-13T19:49:07.823Z,16.88
2022-10-13T19:51:40.083Z,16.97
2022-10-13T19:54:08.617Z,17.01
2022-10-13T19:56:37.041Z,17.11
2022-10-13T19:59:08.180Z,17.14
2022-10-13T20:01:41.044Z,17.09
2022-10-13T20:04:14.394Z,17.09
2022-10-13T20:06:43.852Z,17.07
2022-10-13T20:09:11.081Z,17.04
2022-10-13T20:11:38.315Z,17.03
2022-10-13T20:14:05.527Z,17.03
2022-10-13T20:16:32.774Z,16.99
2022-10-13T20:19:00.301Z,16.98
2022-10-13T20:21:27.800Z,16.97
2022-10-13T20:23:55.220Z,17.00
2022-10-13T20:26:22.556Z,16.99
2022-10-13T20:28:50.705Z,16.93
2022-10-13T20:31:18.925Z,16.88
2022-10-13T20:33:47.047Z,16.83
2022-10-13T20:36:15.912Z,16.80
2022-10-13T20:38:43.059Z,16.79
2022-10-13T20:41:39.809Z,16.78
2022-10-13T20:44:06.968Z,16.76
2022-10-13T20:46:34.684Z,16.74
2022-10-13T20:49:17.331Z,16.72
2022-10-13T20:51:44.770Z,16.62
2022-10-13T20:54:12.976Z,16.60
2022-10-13T20:56:40.211Z,16.58
2022-10-13T20:59:09.151Z,16.60
2022-10-13T21:01:37.023Z,16.58
2022-10-13T21:04:18.548Z,16.58
2022-10-13T21:06:59.813Z,16.54
2022-10-13T21:09:43.044Z,16.55
2022-10-13T21:12:22.230Z,16.57
2022-10-13T21:15:02.264Z,16.58
2022-10-13T21:17:42.610Z,16.52
2022-10-13T21:20:23.617Z,16.37
2022-10-13T21:23:06.086Z,16.37
2022-10-13T21:25:46.363Z,16.36
2022-10-13T21:28:26.189Z,16.37
2022-10-13T21:31:11.824Z,16.38
2022-10-13T21:34:03.616Z,16.40
2022-10-13T21:36:45.340Z,16.40
2022-10-13T21:39:26.685Z,16.31
2022-10-13T21:42:06.647Z,16.33
2022-10-13T21:44:49.662Z,16.34
2022-10-13T21:47:32.331Z,16.37
2022-10-13T21:50:12.437Z,16.35
2022-10-13T21:52:53.746Z,16.31
2022-10-13T21:55:38.440Z,16.25
2022-10-13T21:58:19.813Z,16.26
2022-10-13T22:01:01.849Z,16.26
2022-10-13T22:03:42.760Z,16.20
2022-10-13T22:06:24.344Z,16.09
2022-10-13T22:09:06.287Z,16.15
2022-10-13T22:11:46.891Z,16.20
2022-10-13T22:14:31.284Z,16.21
2022-10-13T22:17:13.321Z,16.14
2022-10-13T22:19:54.240Z,16.16
2022-10-13T22:22:35.761Z,16.22
2022-10-13T22:25:17.029Z,16.07
2022-10-13T22:27:56.991Z,16.18
2022-10-13T22:30:38.322Z,16.19
2022-10-13T22:33:22.821Z,16.25
2022-10-13T22:36:08.949Z,16.25
2022-10-13T22:38:49.545Z,16.24
2022-10-13T22:41:31.507Z,16.21
2022-10-13T22:44:14.920Z,16.18
2022-10-13T22:46:56.511Z,16.13
2022-10-13T22:49:38.044Z,16.15
2022-10-13T22:52:19.032Z,16.14
2022-10-13T22:55:00.855Z,16.14
2022-10-13T22:57:41.941Z,16.15
2022-10-13T23:00:23.744Z,16.02
2022-10-13T23:03:05.210Z,15.93
2022-10-13T23:05:47.254Z,15.87
2022-10-13T23:08:27.489Z,15.84
2022-10-13T23:11:10.337Z,15.84
2022-10-13T23:13:51.985Z,15.84
2022-10-13T23:16:34.021Z,15.83
2022-10-13T23:19:15.060Z,15.77
2022-10-13T23:21:58.252Z,15.68
2022-10-13T23:24:40.135Z,15.70
2022-10-13T23:27:20.735Z,15.70
2022-10-13T23:30:03.745Z,15.72
2022-10-13T23:32:44.925Z,15.78
2022-10-13T23:35:26.327Z,15.82
2022-10-13T23:38:06.156Z,15.79
2022-10-13T23:40:49.173Z,15.73
2022-10-13T23:43:29.105Z,15.77
2022-10-13T23:46:11.011Z,15.76
2022-10-13T23:48:49.949Z,15.73
2022-10-13T23:51:32.081Z,15.64
2022-10-13T23:54:13.405Z,15.56
2022-10-13T23:56:54.404Z,15.56
2022-10-13T23:59:36.399Z,15.55
